createdAt,value
2022-12-20T00:01:36.330Z,38.60
2022-12-20T00:04:06.019Z,38.60
2022-12-20T00:06:36.194Z,38.60
2022-12-20T00:09:07.125Z,38.60
2022-12-20T00:11:35.626Z,38.60
2022-12-20T00:14:03.543Z,38.60
2022-12-20T00:16:31.553Z,38.60
2022-12-20T00:19:02.390Z,38.60
2022-12-20T00:21:31.659Z,38.60
2022-12-20T00:24:00.250Z,38.60
2022-12-20T00:26:31.205Z,38.60
2022-12-20T00:29:01.377Z,38.60
2022-12-20T00:31:30.673Z,38.50
2022-12-20T00:33:59.990Z,38.50
2022-12-20T00:36:29.734Z,38.50
2022-12-20T00:38:59.233Z,38.50
2022-12-20T00:41:30.776Z,38.50
2022-12-20T00:43:58.727Z,38.50
2022-12-20T00:46:26.628Z,38.50
2022-12-20T00:48:55.754Z,38.50
2022-12-20T00:51:26.707Z,38.50
2022-12-20T00:53:55.215Z,38.50
2022-12-20T00:56:23.259Z,38.50
2022-12-20T00:58:59.826Z,38.50
2022-12-20T01:01:32.736Z,38.50
2022-12-20T01:04:01.744Z,38.50
2022-12-20T01:06:31.020Z,38.50
2022-12-20T01:08:59.110Z,38.60
2022-12-20T01:11:32.849Z,38.60
2022-12-20T01:14:05.072Z,38.50
2022-12-20T01:16:39.345Z,38.60
2022-12-20T01:19:08.731Z,38.60
2022-12-20T01:21:36.815Z,38.60
2022-12-20T01:24:04.959Z,38.50
2022-12-20T01:26:32.857Z,38.60
2022-12-20T01:29:01.001Z,38.60
2022-12-20T01:31:30.160Z,38.60
2022-12-20T01:33:58.341Z,38.60
2022-12-20T01:36:29.726Z,38.60
2022-12-20T01:39:09.678Z,38.60
2022-12-20T01:41:38.449Z,38.60
2022-12-20T01:44:18.362Z,38.60
2022-12-20T01:46:48.408Z,38.60
2022-12-20T01:49:38.815Z,38.60
2022-12-20T01:52:29.683Z,38.60
2022-12-20T01:55:12.413Z,38.60
2022-12-20T01:58:06.255Z,38.60
2022-12-20T02:00:34.316Z,38.60
2022-12-20T02:03:08.724Z,38.60
2022-12-20T02:05:39.558Z,38.60
2022-12-20T02:08:09.144Z,38.60
2022-12-20T02:11:03.177Z,38.60
2022-12-20T02:13:55.594Z,38.60
2022-12-20T02:16:29.800Z,38.60
2022-12-20T02:19:14.803Z,38.50
2022-12-20T02:22:16.747Z,38.60
2022-12-20T02:25:03.512Z,38.50
2022-12-20T02:27:57.852Z,38.50
2022-12-20T02:30:28.812Z,38.50
2022-12-20T02:33:11.445Z,38.50
2022-12-20T02:35:40.978Z,38.50
2022-12-20T02:38:29.208Z,38.50
2022-12-20T02:41:12.671Z,38.50
2022-12-20T02:44:02.058Z,38.50
2022-12-20T02:46:31.982Z,38.50
2022-12-20T02:49:03.415Z,38.50
2022-12-20T02:51:33.245Z,38.50
2022-12-20T02:54:02.581Z,38.50
2022-12-20T02:56:36.288Z,38.50
2022-12-20T02:59:14.012Z,38.50
2022-12-20T03:01:46.968Z,38.40
2022-12-20T03:04:17.060Z,38.50
2022-12-20T03:07:05.240Z,38.50
2022-12-20T03:09:36.600Z,38.50
2022-12-20T03:12:05.794Z,38.40
2022-12-20T03:14:36.359Z,38.30
2022-12-20T03:17:08.543Z,38.10
2022-12-20T03:19:39.199Z,38.00
2022-12-20T03:22:07.362Z,38.00
2022-12-20T03:24:35.351Z,37.90
2022-12-20T03:27:09.187Z,37.90
2022-12-20T03:29:37.590Z,37.80
2022-12-20T03:32:06.124Z,37.60
2022-12-20T03:34:34.003Z,37.60
2022-12-20T03:37:02.776Z,37.50
2022-12-20T03:39:30.755Z,37.50
2022-12-20T03:41:58.841Z,37.20
2022-12-20T03:44:26.882Z,37.20
2022-12-20T03:46:55.255Z,37.10
2022-12-20T03:49:23.187Z,37.10
2022-12-20T03:51:53.085Z,37.00
2022-12-20T03:54:21.209Z,37.00
2022-12-20T03:57:21.020Z,36.90
2022-12-20T03:59:52.079Z,36.80
2022-12-20T04:02:22.736Z,36.80
2022-12-20T04:04:51.142Z,36.70
2022-12-20T04:07:19.842Z,36.60
2022-12-20T04:09:48.569Z,36.50
2022-12-20T04:12:17.318Z,36.50
2022-12-20T04:14:45.317Z,36.30
2022-12-20T04:17:14.279Z,37.00
2022-12-20T04:19:43.196Z,37.50
2022-12-20T04:22:11.053Z,37.60
2022-12-20T04:24:50.687Z,37.80
2022-12-20T04:27:25.137Z,37.90
2022-12-20T04:29:55.027Z,38.10
2022-12-20T04:32:24.309Z,38.20
2022-12-20T04:34:52.635Z,38.20
2022-12-20T04:37:21.571Z,38.20
2022-12-20T04:39:55.590Z,38.30
2022-12-20T04:42:46.606Z,38.30
2022-12-20T04:45:16.258Z,38.30
2022-12-20T04:47:44.928Z,38.30
2022-12-20T04:50:15.152Z,38.30
2022-12-20T04:53:03.735Z,38.60
2022-12-20T04:55:40.508Z,38.50
2022-12-20T04:58:08.838Z,38.30
2022-12-20T05:00:40.333Z,38.50
2022-12-20T05:03:23.287Z,38.50
2022-12-20T05:05:51.906Z,38.00
2022-12-20T05:08:20.009Z,38.00
2022-12-20T05:10:51.718Z,38.20
2022-12-20T05:13:19.770Z,37.50
2022-12-20T05:15:54.507Z,37.10
2022-12-20T05:18:27.928Z,37.20
2022-12-20T05:21:21.140Z,36.90
2022-12-20T05:24:10.502Z,37.00
2022-12-20T05:27:00.660Z,36.80
2022-12-20T05:29:28.971Z,36.70
2022-12-20T05:31:57.477Z,36.70
2022-12-20T05:34:26.456Z,36.80
2022-12-20T05:36:56.402Z,36.60
2022-12-20T05:39:28.215Z,36.60
2022-12-20T05:42:00.395Z,36.60
2022-12-20T05:44:29.316Z,36.50
2022-12-20T05:46:58.994Z,36.50
2022-12-20T05:49:30.691Z,36.70
2022-12-20T05:52:03.058Z,36.50
2022-12-20T05:54:31.240Z,36.60
2022-12-20T05:57:16.276Z,36.40
2022-12-20T05:59:44.979Z,36.50
2022-12-20T06:02:23.687Z,36.60
2022-12-20T06:04:59.604Z,36.70
2022-12-20T06:07:29.215Z,36.20
2022-12-20T06:10:00.528Z,31.40
2022-12-20T06:12:42.185Z,31.90
2022-12-20T06:15:11.023Z,30.00
2022-12-20T06:17:40.396Z,27.50
2022-12-20T06:20:09.100Z,27.40
2022-12-20T06:22:37.731Z,27.30
2022-12-20T06:25:06.536Z,27.00
2022-12-20T06:27:37.065Z,26.90
2022-12-20T06:30:13.504Z,26.60
2022-12-20T06:32:54.301Z,27.90
2022-12-20T06:35:22.471Z,27.90
2022-12-20T06:37:51.973Z,28.60
2022-12-20T06:40:20.349Z,29.80
2022-12-20T06:42:48.499Z,29.50
2022-12-20T06:45:17.234Z,29.70
2022-12-20T06:47:45.733Z,29.90
2022-12-20T06:50:15.169Z,30.00
2022-12-20T06:52:43.253Z,30.30
2022-12-20T06:55:11.729Z,30.70
2022-12-20T06:57:42.290Z,30.90
2022-12-20T07:00:12.961Z,31.10
2022-12-20T07:02:41.362Z,31.20
2022-12-20T07:05:09.718Z,31.60
2022-12-20T07:07:44.646Z,31.60
2022-12-20T07:10:13.605Z,31.60
2022-12-20T07:12:47.474Z,31.90
2022-12-20T07:15:17.106Z,31.90
2022-12-20T07:17:45.506Z,32.00
2022-12-20T07:20:15.341Z,32.00
2022-12-20T07:22:43.642Z,32.20
2022-12-20T07:25:11.822Z,32.30
2022-12-20T07:27:39.894Z,32.10
2022-12-20T07:30:08.579Z,32.30
2022-12-20T07:32:36.784Z,32.70
2022-12-20T07:35:04.977Z,32.70
2022-12-20T07:37:33.168Z,32.90
2022-12-20T07:40:01.214Z,33.00
2022-12-20T07:42:36.077Z,33.00
2022-12-20T07:45:07.631Z,33.00
2022-12-20T07:47:36.160Z,33.00
2022-12-20T07:50:04.568Z,33.00
2022-12-20T07:52:35.628Z,33.10
2022-12-20T07:55:07.196Z,33.30
2022-12-20T07:57:41.094Z,33.30
2022-12-20T08:00:11.041Z,33.40
2022-12-20T08:02:49.451Z,33.40
2022-12-20T08:05:18.185Z,33.60
2022-12-20T08:07:51.122Z,33.50
2022-12-20T08:10:23.516Z,33.70
2022-12-20T08:12:52.235Z,33.40
2022-12-20T08:15:22.528Z,33.50
2022-12-20T08:17:51.150Z,33.40
2022-12-20T08:20:19.346Z,33.70
2022-12-20T08:22:47.475Z,33.70
2022-12-20T08:25:15.511Z,33.90
2022-12-20T08:27:43.594Z,33.90
2022-12-20T08:30:12.222Z,33.70
2022-12-20T08:32:40.473Z,33.80
2022-12-20T08:35:08.961Z,33.80
2022-12-20T08:37:36.920Z,34.00
2022-12-20T08:40:05.715Z,34.30
2022-12-20T08:42:33.870Z,35.00
2022-12-20T08:45:02.093Z,35.40
2022-12-20T08:47:32.702Z,35.80
2022-12-20T08:50:01.372Z,35.90
2022-12-20T08:52:30.332Z,36.20
2022-12-20T08:54:58.491Z,36.30
2022-12-20T08:57:27.288Z,36.80
2022-12-20T08:59:55.232Z,37.00
2022-12-20T09:02:23.455Z,37.00
2022-12-20T09:04:52.319Z,36.60
2022-12-20T09:07:20.634Z,36.60
2022-12-20T09:09:48.718Z,36.70
2022-12-20T09:12:16.936Z,37.00
2022-12-20T09:14:45.470Z,36.30
2022-12-20T09:17:13.625Z,36.40
2022-12-20T09:19:41.719Z,36.90
2022-12-20T09:22:09.901Z,37.10
2022-12-20T09:24:38.667Z,36.70
2022-12-20T09:27:06.794Z,37.10
2022-12-20T09:29:35.778Z,38.00
2022-12-20T09:32:04.395Z,36.70
2022-12-20T09:34:32.480Z,37.50
2022-12-20T09:37:00.517Z,37.40
2022-12-20T09:39:32.040Z,37.60
2022-12-20T09:42:00.507Z,38.20
2022-12-20T09:44:40.055Z,38.00
2022-12-20T09:47:23.149Z,38.40
2022-12-20T09:49:57.693Z,38.30
2022-12-20T09:53:23.095Z,38.10
2022-12-20T09:55:56.614Z,38.40
2022-12-20T09:58:45.032Z,39.50
2022-12-20T10:01:24.424Z,39.50
2022-12-20T10:03:57.162Z,39.90
2022-12-20T10:06:30.779Z,39.10
2022-12-20T10:08:59.840Z,39.00
2022-12-20T10:11:41.955Z,38.80
2022-12-20T10:14:26.247Z,38.90
2022-12-20T10:17:10.847Z,38.80
2022-12-20T10:19:45.009Z,38.70
2022-12-20T10:22:20.814Z,38.70
2022-12-20T10:24:58.700Z,38.90
2022-12-20T10:27:26.810Z,39.40
2022-12-20T10:29:54.913Z,39.50
2022-12-20T10:32:24.654Z,38.90
2022-12-20T10:35:10.770Z,39.10
2022-12-20T10:37:41.312Z,38.50
2022-12-20T10:40:46.388Z,39.70
2022-12-20T10:43:20.512Z,39.20
2022-12-20T10:46:09.096Z,39.90
2022-12-20T10:48:41.566Z,40.30
2022-12-20T10:51:16.903Z,40.60
2022-12-20T10:53:55.977Z,40.60
2022-12-20T10:56:39.166Z,40.30
2022-12-20T10:59:16.237Z,40.80
2022-12-20T11:01:47.284Z,40.60
2022-12-20T11:04:36.948Z,40.90
2022-12-20T11:07:28.505Z,39.60
2022-12-20T11:10:20.847Z,40.40
2022-12-20T11:13:23.554Z,38.80
2022-12-20T11:15:57.757Z,39.50
2022-12-20T11:18:51.128Z,39.50
2022-12-20T11:21:38.594Z,39.60
2022-12-20T11:24:25.943Z,39.10
2022-12-20T11:27:38.311Z,39.30
2022-12-20T11:30:14.903Z,39.90
2022-12-20T11:33:13.661Z,40.40
2022-12-20T11:36:02.477Z,40.20
2022-12-20T11:38:53.132Z,40.90
2022-12-20T11:41:36.345Z,40.60
2022-12-20T11:44:31.192Z,39.70
2022-12-20T11:47:17.416Z,39.30
2022-12-20T11:50:00.257Z,39.30
2022-12-20T11:52:51.056Z,39.40
2022-12-20T11:55:25.417Z,39.60
2022-12-20T11:58:19.278Z,40.10
2022-12-20T12:01:13.835Z,39.50
2022-12-20T12:04:23.575Z,39.90
2022-12-20T12:07:02.464Z,39.40
2022-12-20T12:09:39.051Z,39.50
2022-12-20T12:12:27.288Z,39.50
2022-12-20T12:15:26.008Z,39.70
2022-12-20T12:18:08.951Z,39.50
2022-12-20T12:20:49.066Z,39.90
2022-12-20T12:23:24.621Z,39.70
2022-12-20T12:25:53.159Z,39.50
2022-12-20T12:28:24.012Z,39.70
2022-12-20T12:31:08.097Z,39.30
2022-12-20T12:33:39.055Z,39.50
2022-12-20T12:36:39.163Z,39.20
2022-12-20T12:39:45.082Z,39.50
2022-12-20T12:42:35.729Z,39.20
2022-12-20T12:45:32.009Z,39.20
2022-12-20T12:48:26.972Z,39.30
2022-12-20T12:50:58.489Z,39.30
2022-12-20T12:53:43.898Z,39.00
2022-12-20T12:56:46.429Z,38.40
2022-12-20T12:59:25.418Z,39.10
2022-12-20T13:02:17.999Z,39.20
2022-12-20T13:05:25.910Z,39.00
2022-12-20T13:07:55.214Z,39.10
2022-12-20T13:10:29.893Z,39.20
2022-12-20T13:13:00.166Z,39.00
2022-12-20T13:15:29.500Z,39.10
2022-12-20T13:18:21.634Z,39.30
2022-12-20T13:21:19.279Z,38.90
2022-12-20T13:23:47.524Z,39.10
2022-12-20T13:26:43.981Z,39.40
2022-12-20T13:29:35.860Z,39.30
2022-12-20T13:32:42.284Z,39.50
2022-12-20T13:35:25.875Z,39.50
2022-12-20T13:38:07.388Z,39.60
2022-12-20T13:40:49.104Z,39.80
2022-12-20T13:43:22.831Z,39.70
2022-12-20T13:46:09.287Z,39.80
2022-12-20T13:48:47.749Z,39.70
2022-12-20T13:51:27.871Z,39.80
2022-12-20T13:54:05.315Z,40.40
2022-12-20T13:56:45.864Z,40.60
2022-12-20T13:59:34.446Z,40.50
2022-12-20T14:02:11.692Z,40.60
2022-12-20T14:04:43.457Z,40.60
2022-12-20T14:07:16.558Z,39.90
2022-12-20T14:09:55.236Z,40.30
2022-12-20T14:12:28.552Z,40.20
2022-12-20T14:14:59.918Z,40.90
2022-12-20T14:17:33.540Z,41.10
2022-12-20T14:20:06.193Z,41.10
2022-12-20T14:22:36.554Z,41.00
2022-12-20T14:25:07.119Z,41.00
2022-12-20T14:27:38.733Z,41.00
2022-12-20T14:30:07.333Z,40.40
2022-12-20T14:32:35.371Z,37.80
2022-12-20T14:35:03.387Z,33.90
2022-12-20T14:37:34.957Z,33.70
2022-12-20T14:40:25.583Z,34.10
2022-12-20T14:42:53.685Z,32.40
2022-12-20T14:45:25.869Z,31.80
2022-12-20T14:48:07.636Z,32.00
2022-12-20T14:50:38.108Z,31.10
2022-12-20T14:53:20.388Z,31.50
2022-12-20T14:55:48.470Z,32.40
2022-12-20T14:58:28.307Z,33.60
2022-12-20T15:01:04.067Z,34.20
2022-12-20T15:03:32.194Z,35.00
2022-12-20T15:06:00.865Z,35.60
2022-12-20T15:08:33.162Z,36.20
2022-12-20T15:11:12.103Z,36.50
2022-12-20T15:13:51.693Z,36.90
2022-12-20T15:16:25.333Z,36.90
2022-12-20T15:18:54.557Z,37.20
2022-12-20T15:21:41.390Z,37.50
2022-12-20T15:24:15.077Z,37.50
2022-12-20T15:26:43.256Z,38.00
2022-12-20T15:29:31.372Z,37.70
2022-12-20T15:32:17.883Z,37.90
2022-12-20T15:34:46.183Z,38.00
2022-12-20T15:37:18.721Z,38.40
2022-12-20T15:39:47.151Z,37.70
2022-12-20T15:42:18.665Z,38.60
2022-12-20T15:44:47.301Z,38.50
2022-12-20T15:47:17.157Z,38.90
2022-12-20T15:49:50.204Z,38.10
2022-12-20T15:52:21.896Z,38.10
2022-12-20T15:54:50.837Z,39.00
2022-12-20T15:57:19.001Z,39.20
2022-12-20T16:00:04.208Z,39.10
2022-12-20T16:02:42.092Z,38.70
2022-12-20T16:05:14.038Z,38.90
2022-12-20T16:07:42.247Z,38.80
2022-12-20T16:10:14.555Z,39.20
2022-12-20T16:12:43.283Z,39.10
2022-12-20T16:15:21.718Z,38.70
2022-12-20T16:17:49.991Z,38.80
2022-12-20T16:20:19.725Z,38.50
2022-12-20T16:22:48.179Z,38.40
2022-12-20T16:25:31.891Z,38.20
2022-12-20T16:28:00.123Z,38.20
2022-12-20T16:30:28.748Z,38.40
2022-12-20T16:32:59.569Z,38.10
2022-12-20T16:35:29.804Z,37.90
2022-12-20T16:37:59.760Z,37.90
2022-12-20T16:40:31.341Z,38.00
2022-12-20T16:43:00.797Z,38.30
2022-12-20T16:45:31.571Z,38.10
2022-12-20T16:47:59.906Z,38.20
2022-12-20T16:50:28.959Z,38.20
2022-12-20T16:52:57.321Z,38.30
2022-12-20T16:55:27.645Z,38.40
2022-12-20T16:57:55.956Z,38.30
2022-12-20T17:00:27.276Z,38.50
2022-12-20T17:02:56.369Z,38.30
2022-12-20T17:05:30.901Z,38.20
2022-12-20T17:07:59.305Z,38.40
2022-12-20T17:10:27.633Z,38.30
2022-12-20T17:12:55.603Z,38.50
2022-12-20T17:15:27.145Z,38.40
2022-12-20T17:17:55.652Z,38.30
2022-12-20T17:20:25.167Z,38.40
2022-12-20T17:22:55.279Z,38.50
2022-12-20T17:25:28.492Z,39.30
2022-12-20T17:27:57.075Z,39.30
2022-12-20T17:30:26.131Z,38.90
2022-12-20T17:32:54.499Z,39.10
2022-12-20T17:35:28.465Z,38.90
2022-12-20T17:37:57.495Z,38.90
2022-12-20T17:40:29.371Z,38.90
2022-12-20T17:42:57.490Z,38.30
2022-12-20T17:45:29.719Z,38.20
2022-12-20T17:47:58.730Z,35.30
2022-12-20T17:50:27.969Z,34.70
2022-12-20T17:52:56.135Z,36.30
2022-12-20T17:55:28.587Z,35.00
2022-12-20T17:57:56.840Z,32.80
2022-12-20T18:00:38.050Z,33.80
2022-12-20T18:03:07.412Z,33.00
2022-12-20T18:05:35.688Z,33.70
2022-12-20T18:08:03.766Z,34.80
2022-12-20T18:10:31.985Z,35.10
2022-12-20T18:13:00.021Z,35.50
2022-12-20T18:15:28.258Z,35.70
2022-12-20T18:17:56.383Z,35.90
2022-12-20T18:20:24.457Z,36.00
2022-12-20T18:22:52.600Z,36.10
2022-12-20T18:25:20.804Z,36.30
2022-12-20T18:27:48.800Z,36.40
2022-12-20T18:30:17.198Z,36.40
2022-12-20T18:32:45.606Z,36.50
2022-12-20T18:35:13.681Z,36.60
2022-12-20T18:37:41.753Z,36.70
2022-12-20T18:40:10.437Z,36.70
2022-12-20T18:42:38.675Z,36.70
2022-12-20T18:45:07.503Z,36.80
2022-12-20T18:47:36.319Z,36.90
2022-12-20T18:50:04.892Z,37.00
2022-12-20T18:52:32.896Z,37.00
2022-12-20T18:55:01.105Z,37.00
2022-12-20T18:57:29.132Z,37.00
2022-12-20T18:59:57.273Z,37.10
2022-12-20T19:02:25.786Z,37.10
2022-12-20T19:04:54.127Z,37.10
2022-12-20T19:07:22.025Z,37.10
2022-12-20T19:09:50.118Z,37.20
2022-12-20T19:12:17.962Z,37.20
2022-12-20T19:14:45.908Z,37.20
2022-12-20T19:17:14.058Z,37.30
2022-12-20T19:19:42.221Z,37.30
2022-12-20T19:22:10.152Z,37.30
2022-12-20T19:24:38.220Z,37.20
2022-12-20T19:27:07.868Z,37.30
2022-12-20T19:29:35.809Z,37.30
2022-12-20T19:32:04.142Z,37.30
2022-12-20T19:34:32.235Z,37.40
2022-12-20T19:37:00.597Z,37.30
2022-12-20T19:39:30.553Z,37.30
2022-12-20T19:42:22.816Z,37.30
2022-12-20T19:44:47.821Z,37.30
2022-12-20T19:47:15.847Z,37.40
2022-12-20T19:49:43.878Z,37.40
2022-12-20T19:52:28.771Z,37.40
2022-12-20T19:54:57.237Z,37.40
2022-12-20T19:57:25.279Z,37.40
2022-12-20T19:59:55.919Z,37.40
2022-12-20T20:02:24.991Z,37.40
2022-12-20T20:04:53.067Z,37.40
2022-12-20T20:07:21.255Z,37.40
2022-12-20T20:09:49.488Z,37.50
2022-12-20T20:12:17.439Z,37.40
2022-12-20T20:14:46.127Z,37.40
2022-12-20T20:17:14.154Z,37.50
2022-12-20T20:19:43.047Z,37.40
2022-12-20T20:22:11.028Z,37.50
2022-12-20T20:24:39.197Z,37.40
2022-12-20T20:27:07.123Z,37.50
2022-12-20T20:29:35.184Z,37.50
2022-12-20T20:32:03.609Z,37.50
2022-12-20T20:34:31.560Z,37.50
2022-12-20T20:36:59.769Z,37.50
2022-12-20T20:39:27.906Z,37.50
2022-12-20T20:41:56.015Z,37.50
2022-12-20T20:44:24.133Z,37.50
2022-12-20T20:46:52.290Z,37.50
2022-12-20T20:49:20.556Z,37.50
2022-12-20T20:51:48.542Z,37.50
2022-12-20T20:54:16.867Z,37.50
2022-12-20T20:56:44.886Z,37.50
2022-12-20T20:59:17.483Z,37.50
2022-12-20T21:01:46.532Z,37.50
2022-12-20T21:04:14.913Z,37.50
2022-12-20T21:06:43.189Z,37.50
2022-12-20T21:09:11.704Z,37.50
2022-12-20T21:11:40.060Z,37.50
2022-12-20T21:14:08.215Z,37.50
2022-12-20T21:16:36.838Z,37.50
2022-12-20T21:19:05.872Z,37.60
2022-12-20T21:21:35.021Z,37.50
2022-12-20T21:24:03.142Z,37.60
2022-12-20T21:26:31.811Z,37.50
2022-12-20T21:29:01.212Z,37.60
2022-12-20T21:31:29.682Z,37.50
2022-12-20T21:33:59.396Z,37.60
2022-12-20T21:36:27.455Z,37.60
2022-12-20T21:38:56.987Z,37.60
2022-12-20T21:41:28.101Z,37.60
2022-12-20T21:44:00.665Z,37.60
2022-12-20T21:46:30.194Z,37.60
2022-12-20T21:48:59.057Z,37.60
2022-12-20T21:51:29.297Z,37.60
2022-12-20T21:54:00.115Z,37.60
2022-12-20T21:56:30.514Z,37.60
2022-12-20T21:58:58.882Z,37.60
2022-12-20T22:01:28.340Z,37.60
2022-12-20T22:04:02.204Z,37.60
2022-12-20T22:06:31.728Z,37.70
2022-12-20T22:09:06.825Z,37.70
2022-12-20T22:11:35.208Z,37.70
2022-12-20T22:14:03.770Z,37.70
2022-12-20T22:16:32.461Z,37.60
2022-12-20T22:19:01.364Z,37.70
2022-12-20T22:21:31.998Z,37.70
2022-12-20T22:24:01.364Z,37.70
2022-12-20T22:26:32.090Z,37.70
2022-12-20T22:29:02.718Z,37.70
2022-12-20T22:31:31.281Z,37.70
2022-12-20T22:34:00.233Z,37.70
2022-12-20T22:36:28.955Z,37.70
2022-12-20T22:38:57.680Z,37.70
2022-12-20T22:41:29.146Z,37.70
2022-12-20T22:44:00.518Z,37.70
2022-12-20T22:46:32.106Z,37.70
2022-12-20T22:49:01.550Z,37.70
2022-12-20T22:51:33.618Z,37.70
2022-12-20T22:54:01.812Z,37.80
2022-12-20T22:56:30.030Z,37.80
2022-12-20T22:58:58.158Z,37.80
2022-12-20T23:01:26.518Z,37.80
2022-12-20T23:03:54.593Z,37.80
2022-12-20T23:06:22.744Z,37.70
2022-12-20T23:08:50.888Z,37.70
2022-12-20T23:11:39.062Z,37.70
2022-12-20T23:14:33.745Z,37.80
2022-12-20T23:17:02.032Z,37.80
2022-12-20T23:19:53.608Z,37.70
2022-12-20T23:22:39.543Z,37.80
2022-12-20T23:25:19.099Z,37.80
2022-12-20T23:27:49.143Z,37.80
2022-12-20T23:30:20.025Z,37.80
2022-12-20T23:32:48.129Z,37.80
2022-12-20T23:35:18.709Z,37.80
2022-12-20T23:37:47.097Z,37.90
2022-12-20T23:40:16.978Z,37.80
2022-12-20T23:42:45.501Z,37.90
2022-12-20T23:45:13.807Z,37.90
2022-12-20T23:47:41.683Z,37.90
2022-12-20T23:50:10.021Z,37.90
2022-12-20T23:52:37.999Z,37.90
2022-12-20T23:55:06.266Z,37.90
2022-12-20T23:57:34.204Z,37.90
